Time;durP1;ratioP1;P1;durP2;ratioP2;P2;SDS_P1;SDS_P2;PMS_P1;PMS_P2;Temp;Humidity;BMP_temperature;BMP_pressure;BME280_temperature;BME280_humidity;BME280_pressure;Samples;Min_cycle;Max_cycle;Signal;HPM_P1;HPM_P2
2023/02/18 00:03:41;;;;;;;16.42;13.38;;;;;;;;;;5113060;28;20685;-69
2023/02/18 00:09:11;;;;;;;12.90;9.75;;;;;;;;;;5114455;28;20032;-70
2023/02/18 00:11:38;;;;;;;13.45;10.43;;;;;;;;;;5094450;28;20130;-70
2023/02/18 00:14:04;;;;;;;26.70;15.55;;;;;;;;;;5077120;28;20119;-70
2023/02/18 00:16:30;;;;;;;24.17;13.85;;;;;;;;;;5109908;28;20126;-70
2023/02/18 00:18:57;;;;;;;20.10;13.10;;;;;;;;;;5090843;28;20070;-70
2023/02/18 00:21:23;;;;;;;10.00;7.95;;;;;;;;;;5113047;28;20535;-70
2023/02/18 00:23:49;;;;;;;8.70;7.75;;;;;;;;;;5077493;28;20050;-70
2023/02/18 00:26:33;;;;;;;16.05;11.63;;;;;;;;;;5077912;28;20043;-70
2023/02/18 00:29:18;;;;;;;15.32;9.05;;;;;;;;;;5112875;28;20032;-71
2023/02/18 00:34:48;;;;;;;16.92;12.52;;;;;;;;;;5114768;27;20659;-69
2023/02/18 00:37:14;;;;;;;19.77;10.63;;;;;;;;;;5114960;27;20096;-70
2023/02/18 00:39:40;;;;;;;12.88;9.68;;;;;;;;;;5131798;27;20032;-69
2023/02/18 00:42:24;;;;;;;22.52;11.52;;;;;;;;;;5133172;27;20043;-70
2023/02/18 00:44:50;;;;;;;26.88;14.70;;;;;;;;;;5114252;27;20088;-70
2023/02/18 00:47:16;;;;;;;20.50;12.63;;;;;;;;;;5094229;28;20566;-70
2023/02/18 00:49:42;;;;;;;15.02;11.32;;;;;;;;;;5094103;28;20127;-70
2023/02/18 00:52:08;;;;;;;30.33;17.27;;;;;;;;;;5093775;28;20201;-71
2023/02/18 00:54:34;;;;;;;17.48;9.98;;;;;;;;;;5112249;28;20571;-70
2023/02/18 00:57:00;;;;;;;17.05;11.63;;;;;;;;;;5112022;28;20074;-70
2023/02/18 00:59:26;;;;;;;30.35;16.30;;;;;;;;;;5093758;28;20063;-70
2023/02/18 01:01:52;;;;;;;25.48;13.23;;;;;;;;;;5111847;28;20070;-71
2023/02/18 01:07:03;;;;;;;18.33;11.98;;;;;;;;;;5112009;28;20036;-70
2023/02/18 01:12:14;;;;;;;16.30;11.65;;;;;;;;;;5111906;28;20044;-70
2023/02/18 01:14:59;;;;;;;14.05;8.68;;;;;;;;;;5111830;28;20036;-70
2023/02/18 01:17:25;;;;;;;18.35;11.80;;;;;;;;;;5076627;28;20031;-71
2023/02/18 01:19:51;;;;;;;41.80;21.17;;;;;;;;;;5111297;28;20036;-70
2023/02/18 01:22:30;;;;;;;17.00;10.88;;;;;;;;;;5111789;28;20039;-70
2023/02/18 01:24:56;;;;;;;39.60;21.35;;;;;;;;;;5111379;28;20038;-70
2023/02/18 01:27:24;;;;;;;19.38;13.40;;;;;;;;;;5093504;28;20039;-70
2023/02/18 01:29:51;;;;;;;30.38;15.35;;;;;;;;;;5110582;28;20032;-70
2023/02/18 01:32:18;;;;;;;27.60;18.02;;;;;;;;;;5111527;28;20518;-70
2023/02/18 01:34:44;;;;;;;16.33;10.65;;;;;;;;;;5111331;28;20023;-70
2023/02/18 01:37:28;;;;;;;25.35;15.80;;;;;;;;;;5111077;28;20676;-70
2023/02/18 01:39:55;;;;;;;21.65;16.10;;;;;;;;;;5092899;28;20415;-70
2023/02/18 01:42:24;;;;;;;38.72;18.50;;;;;;;;;;5093175;28;20073;-70
2023/02/18 01:44:50;;;;;;;27.85;18.33;;;;;;;;;;5110923;28;20067;-71
2023/02/18 01:50:20;;;;;;;19.95;13.55;;;;;;;;;;5119683;27;20039;-71
2023/02/18 01:52:47;;;;;;;19.88;14.93;;;;;;;;;;5104564;27;20098;-71
2023/02/18 01:55:13;;;;;;;46.40;22.08;;;;;;;;;;5131380;27;20031;-70
2023/02/18 01:57:42;;;;;;;24.88;14.48;;;;;;;;;;5113749;27;20031;-70
2023/02/18 02:00:11;;;;;;;32.58;19.23;;;;;;;;;;5112953;27;20035;-70
2023/02/18 02:02:46;;;;;;;18.60;12.45;;;;;;;;;;5131505;27;20030;-70
2023/02/18 02:05:12;;;;;;;24.25;16.45;;;;;;;;;;5131215;27;20118;-70
2023/02/18 02:07:39;;;;;;;25.13;16.40;;;;;;;;;;5113359;27;20038;-71
2023/02/18 02:13:19;;;;;;;20.58;12.68;;;;;;;;;;5112900;27;20111;-70
2023/02/18 02:21:51;;;;;;;34.95;19.42;;;;;;;;;;5131206;27;20087;-70
2023/02/18 02:24:36;;;;;;;21.90;15.18;;;;;;;;;;5131054;27;20530;-70
2023/02/18 02:27:03;;;;;;;13.93;9.88;;;;;;;;;;5112530;27;20034;-69
2023/02/18 02:29:48;;;;;;;17.83;13.65;;;;;;;;;;5130949;27;20039;-69
2023/02/18 02:32:20;;;;;;;27.90;14.43;;;;;;;;;;5130910;27;20172;-69
2023/02/18 02:34:55;;;;;;;24.83;16.17;;;;;;;;;;5112797;27;20042;-69
2023/02/18 02:37:38;;;;;;;33.15;19.58;;;;;;;;;;5112589;27;20179;-70
2023/02/18 02:40:24;;;;;;;21.70;13.68;;;;;;;;;;5112142;27;20046;-69
2023/02/18 02:43:06;;;;;;;21.65;15.38;;;;;;;;;;5111327;27;20042;-70
2023/02/18 02:45:31;;;;;;;;;;;;;;;;;;5131246;27;20103;-72
2023/02/18 02:48:01;;;;;;;13.18;10.20;;;;;;;;;;5112110;27;19915;-70
2023/02/18 02:50:45;;;;;;;16.60;10.82;;;;;;;;;;5129868;27;20031;-69
2023/02/18 02:53:16;;;;;;;24.38;12.90;;;;;;;;;;5102225;28;20058;-70
2023/02/18 02:55:42;;;;;;;31.38;18.55;;;;;;;;;;5076628;28;20137;-70
2023/02/18 02:58:45;;;;;;;26.58;18.02;;;;;;;;;;5095134;28;20114;-70
2023/02/18 03:01:12;;;;;;;20.02;10.32;;;;;;;;;;5091685;28;20036;-70
2023/02/18 03:03:38;;;;;;;25.17;16.33;;;;;;;;;;5091949;28;20089;-70
2023/02/18 03:06:28;;;;;;;12.68;8.38;;;;;;;;;;5091696;28;20093;-70
2023/02/18 03:09:08;;;;;;;22.98;15.95;;;;;;;;;;5109527;28;20493;-70
2023/02/18 03:11:46;;;;;;;10.25;8.93;;;;;;;;;;5091499;28;20128;-70
2023/02/18 03:14:19;;;;;;;27.48;17.33;;;;;;;;;;5074767;28;20134;-69
2023/02/18 03:19:36;;;;;;;18.58;13.68;;;;;;;;;;5077317;28;20035;-70
2023/02/18 03:22:23;;;;;;;19.52;12.32;;;;;;;;;;5109864;28;20080;-69
2023/02/18 03:24:50;;;;;;;19.33;13.93;;;;;;;;;;5091066;28;20046;-70
2023/02/18 03:30:56;;;;;;;16.02;11.63;;;;;;;;;;5029574;28;20053;-69
2023/02/18 03:33:25;;;;;;;21.40;13.23;;;;;;;;;;5075009;28;20179;-69
2023/02/18 03:35:52;;;;;;;19.48;11.15;;;;;;;;;;5091816;28;20503;-70
2023/02/18 03:38:19;;;;;;;25.17;14.30;;;;;;;;;;5074486;28;20070;-71
2023/02/18 03:40:45;;;;;;;15.13;10.43;;;;;;;;;;5109495;28;20441;-70
2023/02/18 03:43:11;;;;;;;15.13;10.80;;;;;;;;;;5091032;28;20040;-70
2023/02/18 03:45:56;;;;;;;16.45;11.43;;;;;;;;;;5107958;28;20039;-70
2023/02/18 03:48:41;;;;;;;11.45;10.05;;;;;;;;;;5103773;28;20491;-70
2023/02/18 03:51:07;;;;;;;13.10;10.65;;;;;;;;;;5129418;28;20054;-70
2023/02/18 03:53:33;;;;;;;12.68;9.45;;;;;;;;;;5112599;27;20041;-70
2023/02/18 03:55:59;;;;;;;27.73;18.15;;;;;;;;;;5098187;27;20038;-71
2023/02/18 03:58:25;;;;;;;17.48;9.98;;;;;;;;;;5133327;27;20027;-70
2023/02/18 04:00:51;;;;;;;20.77;15.07;;;;;;;;;;5133867;27;20038;-71
2023/02/18 04:03:17;;;;;;;25.23;15.05;;;;;;;;;;5133577;27;20620;-71
2023/02/18 04:05:43;;;;;;;22.83;15.32;;;;;;;;;;5133707;27;20612;-71
2023/02/18 04:08:09;;;;;;;21.88;14.30;;;;;;;;;;5133475;27;20031;-71
2023/02/18 04:10:34;;;;;;;18.92;12.93;;;;;;;;;;5133491;27;20023;-70
2023/02/18 04:13:01;;;;;;;10.63;9.57;;;;;;;;;;5133322;27;20041;-70
2023/02/18 04:15:27;;;;;;;23.92;17.00;;;;;;;;;;5105733;28;20043;-71
2023/02/18 04:17:53;;;;;;;18.98;13.65;;;;;;;;;;5112965;28;20092;-71
2023/02/18 04:20:37;;;;;;;25.20;15.82;;;;;;;;;;5094554;28;20063;-70
2023/02/18 04:23:03;;;;;;;19.90;13.25;;;;;;;;;;5112563;28;20075;-70
2023/02/18 04:25:29;;;;;;;22.20;13.98;;;;;;;;;;5133013;27;20518;-70
2023/02/18 04:27:55;;;;;;;29.95;14.60;;;;;;;;;;5133246;27;20066;-70
2023/02/18 04:30:21;;;;;;;21.60;13.77;;;;;;;;;;5132877;27;20047;-70
2023/02/18 04:32:47;;;;;;;21.92;13.88;;;;;;;;;;5114817;27;20043;-70
2023/02/18 04:35:13;;;;;;;33.80;19.20;;;;;;;;;;5132813;27;20035;-71
2023/02/18 04:37:39;;;;;;;30.85;19.15;;;;;;;;;;5133154;27;20079;-71
2023/02/18 04:40:05;;;;;;;36.33;19.92;;;;;;;;;;5114342;27;20037;-71
2023/02/18 04:42:32;;;;;;;21.27;15.30;;;;;;;;;;5133015;27;20485;-70
2023/02/18 04:44:57;;;;;;;29.75;17.67;;;;;;;;;;5132790;27;20118;-70
2023/02/18 04:50:08;;;;;;;20.75;13.30;;;;;;;;;;5111953;28;20059;-70
2023/02/18 04:52:34;;;;;;;23.10;17.00;;;;;;;;;;5112367;28;20040;-71
2023/02/18 04:55:00;;;;;;;20.17;11.85;;;;;;;;;;5111963;28;20112;-71
2023/02/18 04:57:45;;;;;;;25.17;15.63;;;;;;;;;;5109620;27;20035;-69
2023/02/18 05:00:12;;;;;;;14.57;10.88;;;;;;;;;;5117745;27;20034;-68
2023/02/18 05:02:38;;;;;;;20.08;14.73;;;;;;;;;;5113697;27;20043;-69
2023/02/18 05:05:05;;;;;;;21.17;15.02;;;;;;;;;;5109926;27;20464;-68
2023/02/18 05:07:31;;;;;;;17.52;11.55;;;;;;;;;;5110862;28;20122;-69
2023/02/18 05:09:56;;;;;;;26.95;18.17;;;;;;;;;;5111291;28;20122;-70
2023/02/18 05:12:22;;;;;;;24.05;16.77;;;;;;;;;;5111162;28;20100;-70
2023/02/18 05:14:49;;;;;;;18.88;13.75;;;;;;;;;;5092918;28;20032;-69
2023/02/18 05:19:59;;;;;;;18.42;12.05;;;;;;;;;;5110944;28;20028;-69
2023/02/18 05:22:25;;;;;;;16.55;7.82;;;;;;;;;;5109616;28;20171;-69
2023/02/18 05:24:51;;;;;;;8.02;7.28;;;;;;;;;;5110752;28;20056;-70
2023/02/18 05:30:02;;;;;;;13.00;9.93;;;;;;;;;;5110356;27;20410;-70
2023/02/18 05:32:28;;;;;;;11.38;10.23;;;;;;;;;;5092686;28;20147;-70
2023/02/18 05:34:55;;;;;;;11.43;8.68;;;;;;;;;;5093928;27;20517;-68
2023/02/18 05:37:21;;;;;;;9.43;8.20;;;;;;;;;;5121723;27;20212;-68
2023/02/18 05:39:47;;;;;;;9.23;8.20;;;;;;;;;;5099246;27;20034;-69
2023/02/18 05:42:13;;;;;;;10.23;8.63;;;;;;;;;;5131050;27;20049;-69
2023/02/18 05:44:39;;;;;;;8.30;7.53;;;;;;;;;;5125410;27;20519;-70
2023/02/18 05:47:06;;;;;;;7.03;6.43;;;;;;;;;;5109966;28;20035;-72
2023/02/18 05:49:32;;;;;;;8.60;7.80;;;;;;;;;;5110558;28;20081;-70
2023/02/18 05:51:58;;;;;;;7.72;5.82;;;;;;;;;;5110388;28;20051;-70
2023/02/18 05:54:24;;;;;;;9.88;7.53;;;;;;;;;;5122473;27;20514;-71
2023/02/18 05:56:50;;;;;;;9.75;8.95;;;;;;;;;;5112301;27;20036;-70
2023/02/18 05:59:16;;;;;;;8.55;7.65;;;;;;;;;;5116233;27;20046;-71
2023/02/18 06:01:42;;;;;;;6.68;6.07;;;;;;;;;;5110347;28;20027;-71
2023/02/18 06:04:08;;;;;;;7.45;6.60;;;;;;;;;;5111983;27;20054;-70
2023/02/18 06:06:34;;;;;;;8.05;7.45;;;;;;;;;;5112036;27;20031;-71
2023/02/18 06:09:00;;;;;;;5.25;4.63;;;;;;;;;;5130726;27;20194;-71
2023/02/18 06:11:26;;;;;;;5.78;5.22;;;;;;;;;;5119717;27;20419;-70
2023/02/18 06:13:52;;;;;;;8.57;7.75;;;;;;;;;;5091686;28;20030;-71
2023/02/18 06:16:18;;;;;;;7.53;6.53;;;;;;;;;;5115577;27;20039;-69
2023/02/18 06:19:02;;;;;;;5.38;4.78;;;;;;;;;;5089010;27;20030;-69
2023/02/18 06:21:29;;;;;;;6.07;5.47;;;;;;;;;;5129913;27;20034;-70
2023/02/18 06:23:54;;;;;;;5.85;5.30;;;;;;;;;;5130283;27;20084;-70
2023/02/18 06:26:20;;;;;;;7.72;6.88;;;;;;;;;;5130063;27;20031;-70
2023/02/18 06:31:51;;;;;;;8.73;7.85;;;;;;;;;;5124593;27;20058;-70
2023/02/18 06:34:18;;;;;;;6.30;5.85;;;;;;;;;;5091714;27;20134;-70
2023/02/18 06:36:44;;;;;;;5.97;5.47;;;;;;;;;;5115809;27;20039;-69
2023/02/18 06:39:10;;;;;;;7.55;6.53;;;;;;;;;;5099374;27;20030;-69
2023/02/18 06:41:36;;;;;;;7.15;6.57;;;;;;;;;;5116179;27;20726;-69
2023/02/18 06:44:02;;;;;;;7.22;6.50;;;;;;;;;;5119897;27;20054;-68
2023/02/18 06:46:28;;;;;;;6.30;5.70;;;;;;;;;;5117717;27;20032;-69
2023/02/18 06:48:54;;;;;;;7.80;7.00;;;;;;;;;;5109098;27;20037;-69
2023/02/18 06:51:20;;;;;;;5.97;5.38;;;;;;;;;;5116111;27;20046;-70
2023/02/18 06:56:31;;;;;;;5.72;5.25;;;;;;;;;;5118275;27;20038;-69
2023/02/18 07:01:41;;;;;;;7.88;6.85;;;;;;;;;;5121495;27;20507;-70
2023/02/18 07:04:07;;;;;;;7.30;6.70;;;;;;;;;;5099663;27;20020;-69
2023/02/18 07:06:33;;;;;;;6.25;5.75;;;;;;;;;;5117873;27;20042;-69
2023/02/18 07:08:59;;;;;;;6.75;6.15;;;;;;;;;;5119811;27;20031;-70
2023/02/18 07:11:25;;;;;;;7.07;5.35;;;;;;;;;;5117870;27;20074;-70
2023/02/18 07:13:51;;;;;;;8.52;7.70;;;;;;;;;;5115934;27;20042;-69
2023/02/18 07:16:17;;;;;;;8.90;7.32;;;;;;;;;;5100789;27;20488;-70
2023/02/18 07:18:43;;;;;;;9.52;8.65;;;;;;;;;;5099415;28;20442;-70
2023/02/18 07:23:53;;;;;;;5.82;5.43;;;;;;;;;;5119579;27;20034;-70
2023/02/18 07:29:22;;;;;;;6.80;6.30;;;;;;;;;;5119222;27;20087;-70
2023/02/18 07:31:48;;;;;;;6.25;5.57;;;;;;;;;;5099576;28;20079;-70
2023/02/18 07:34:14;;;;;;;8.20;7.40;;;;;;;;;;5119948;27;20063;-70
2023/02/18 07:36:41;;;;;;;11.27;8.18;;;;;;;;;;5117104;28;20516;-70
2023/02/18 07:39:07;;;;;;;7.43;6.72;;;;;;;;;;5108922;28;20031;-70
2023/02/18 07:41:33;;;;;;;8.25;7.55;;;;;;;;;;5117180;28;20031;-70
2023/02/18 07:43:59;;;;;;;6.88;6.30;;;;;;;;;;5086813;28;20031;-71
2023/02/18 07:46:25;;;;;;;8.45;7.72;;;;;;;;;;5119982;28;20093;-70
2023/02/18 07:48:51;;;;;;;10.70;9.77;;;;;;;;;;5098169;28;20720;-70
2023/02/18 07:51:16;;;;;;;6.15;5.70;;;;;;;;;;5114948;28;20047;-70
2023/02/18 07:53:43;;;;;;;7.15;6.65;;;;;;;;;;5114857;28;20031;-70
2023/02/18 07:56:27;;;;;;;9.25;8.35;;;;;;;;;;5112616;28;20028;-70
2023/02/18 07:58:53;;;;;;;11.88;9.60;;;;;;;;;;5096977;28;20379;-70
2023/02/18 08:01:19;;;;;;;6.53;5.97;;;;;;;;;;5115204;28;20541;-70
2023/02/18 08:03:45;;;;;;;5.72;5.20;;;;;;;;;;5116247;28;20055;-70
2023/02/18 08:06:19;;;;;;;8.48;7.68;;;;;;;;;;5096138;28;20028;-69
2023/02/18 08:08:45;;;;;;;7.45;6.95;;;;;;;;;;5100466;28;20039;-70
2023/02/18 08:11:11;;;;;;;6.75;6.15;;;;;;;;;;5118076;28;20064;-70
2023/02/18 08:13:37;;;;;;;7.95;7.30;;;;;;;;;;5123122;28;20624;-69
2023/02/18 08:16:03;;;;;;;8.05;7.38;;;;;;;;;;5109504;28;20524;-71
2023/02/18 08:18:29;;;;;;;8.10;7.40;;;;;;;;;;5113874;28;20143;-70
2023/02/18 08:20:55;;;;;;;7.88;7.28;;;;;;;;;;5111058;28;20070;-69
2023/02/18 08:23:21;;;;;;;7.53;6.93;;;;;;;;;;5114298;28;20035;-69
2023/02/18 08:25:50;;;;;;;6.70;6.10;;;;;;;;;;5126087;28;20506;-70
2023/02/18 08:28:17;;;;;;;9.75;6.53;;;;;;;;;;5100868;28;20515;-70
2023/02/18 08:30:46;;;;;;;7.55;6.43;;;;;;;;;;5115156;28;20056;-70
2023/02/18 08:33:12;;;;;;;9.65;6.25;;;;;;;;;;5124215;28;20571;-69
2023/02/18 08:35:38;;;;;;;8.30;7.65;;;;;;;;;;5127652;28;20039;-71
2023/02/18 08:38:04;;;;;;;8.45;7.38;;;;;;;;;;5127602;28;20031;-71
2023/02/18 08:40:30;;;;;;;8.88;8.07;;;;;;;;;;5106007;27;20533;-69
2023/02/18 08:42:56;;;;;;;9.10;8.23;;;;;;;;;;5097901;27;20053;-70
2023/02/18 08:45:22;;;;;;;7.95;7.35;;;;;;;;;;5114534;27;20091;-69
2023/02/18 08:47:48;;;;;;;8.13;7.22;;;;;;;;;;5113636;27;20035;-70
2023/02/18 08:53:02;;;;;;;7.47;6.72;;;;;;;;;;5117857;27;20031;-70
2023/02/18 08:55:28;;;;;;;7.53;6.93;;;;;;;;;;5107997;27;20480;-70
2023/02/18 08:57:54;;;;;;;8.75;8.02;;;;;;;;;;5116636;27;20035;-71
2023/02/18 09:00:20;;;;;;;8.35;7.50;;;;;;;;;;5118080;27;20544;-71
2023/02/18 09:02:46;;;;;;;6.90;6.32;;;;;;;;;;5120198;27;20033;-71
2023/02/18 09:05:12;;;;;;;7.53;6.72;;;;;;;;;;5118118;27;20396;-71
2023/02/18 09:07:38;;;;;;;10.60;9.70;;;;;;;;;;5100852;27;20032;-71
2023/02/18 09:10:05;;;;;;;8.82;8.02;;;;;;;;;;5117593;27;20039;-69
2023/02/18 09:12:31;;;;;;;7.75;7.10;;;;;;;;;;5117816;27;20158;-72
2023/02/18 09:14:57;;;;;;;8.63;7.85;;;;;;;;;;5109653;27;20495;-70
2023/02/18 09:17:23;;;;;;;8.65;7.93;;;;;;;;;;5115391;27;20031;-71
2023/02/18 09:19:49;;;;;;;8.73;7.88;;;;;;;;;;5119562;27;20035;-70
2023/02/18 09:22:15;;;;;;;9.85;8.85;;;;;;;;;;5100498;27;20353;-72
2023/02/18 09:24:41;;;;;;;8.77;8.07;;;;;;;;;;5091959;27;20031;-71
2023/02/18 09:27:07;;;;;;;7.72;7.07;;;;;;;;;;5119356;27;20034;-71
2023/02/18 09:29:33;;;;;;;9.00;8.20;;;;;;;;;;5108446;27;20042;-71
2023/02/18 09:32:00;;;;;;;6.20;5.60;;;;;;;;;;5117948;27;20087;-71
2023/02/18 09:34:26;;;;;;;8.43;7.70;;;;;;;;;;5100953;27;20031;-71
2023/02/18 09:36:52;;;;;;;5.70;5.30;;;;;;;;;;5108742;27;20522;-70
2023/02/18 09:39:19;;;;;;;8.02;7.22;;;;;;;;;;5117598;27;20043;-70
2023/02/18 09:41:46;;;;;;;6.30;5.80;;;;;;;;;;5125675;27;20031;-70
2023/02/18 09:44:25;;;;;;;6.97;6.28;;;;;;;;;;5124772;27;20087;-69
2023/02/18 09:46:52;;;;;;;5.60;5.20;;;;;;;;;;5102721;27;20030;-70
2023/02/18 09:49:36;;;;;;;8.32;7.15;;;;;;;;;;5116174;27;20031;-70
2023/02/18 09:52:22;;;;;;;7.50;6.93;;;;;;;;;;5126396;27;20491;-70
2023/02/18 09:54:49;;;;;;;6.72;6.20;;;;;;;;;;5114099;27;20491;-69
2023/02/18 10:00:10;;;;;;;5.90;5.30;;;;;;;;;;5111562;27;20168;-70
2023/02/18 10:02:39;;;;;;;8.05;7.35;;;;;;;;;;5099729;27;20031;-71
2023/02/18 10:05:05;;;;;;;6.63;5.78;;;;;;;;;;5104134;27;20027;-71
2023/02/18 10:07:32;;;;;;;7.93;7.18;;;;;;;;;;5126781;27;20130;-71
2023/02/18 10:10:00;;;;;;;6.90;6.32;;;;;;;;;;5118474;27;20608;-72
2023/02/18 10:12:26;;;;;;;8.20;7.57;;;;;;;;;;5106382;27;20061;-70
2023/02/18 10:14:56;;;;;;;8.38;7.78;;;;;;;;;;5112032;27;20027;-71
2023/02/18 10:17:22;;;;;;;9.13;7.45;;;;;;;;;;5111881;27;20038;-71
2023/02/18 10:25:37;;;;;;;10.23;9.32;;;;;;;;;;5120997;27;20030;-70
2023/02/18 10:28:03;;;;;;;9.27;8.48;;;;;;;;;;5089613;28;20034;-70
2023/02/18 10:30:30;;;;;;;9.75;8.85;;;;;;;;;;5116098;27;20047;-70
2023/02/18 10:33:00;;;;;;;9.63;8.73;;;;;;;;;;5116077;27;20128;-71
2023/02/18 10:35:32;;;;;;;8.30;7.60;;;;;;;;;;5121023;27;20080;-71
2023/02/18 10:38:17;;;;;;;9.57;8.68;;;;;;;;;;5111426;27;20023;-70
2023/02/18 10:40:58;;;;;;;11.95;10.75;;;;;;;;;;5115814;27;20032;-71
2023/02/18 10:43:27;;;;;;;7.93;7.22;;;;;;;;;;5119131;27;20051;-71
2023/02/18 10:45:56;;;;;;;8.45;7.68;;;;;;;;;;5113204;27;20035;-71
2023/02/18 10:48:26;;;;;;;6.75;6.25;;;;;;;;;;5094473;27;20082;-71
2023/02/18 10:51:11;;;;;;;6.57;5.97;;;;;;;;;;5099620;27;20043;-70
2023/02/18 10:53:38;;;;;;;9.57;8.68;;;;;;;;;;5113798;27;20095;-71
2023/02/18 10:56:04;;;;;;;9.05;8.35;;;;;;;;;;5100430;27;20084;-70
2023/02/18 10:58:30;;;;;;;8.43;7.82;;;;;;;;;;5118941;27;20033;-69
2023/02/18 11:00:56;;;;;;;8.65;7.95;;;;;;;;;;5126334;27;20411;-69
2023/02/18 11:03:23;;;;;;;9.32;8.52;;;;;;;;;;5126130;27;20058;-70
2023/02/18 11:05:50;;;;;;;8.48;7.78;;;;;;;;;;5116825;27;20473;-71
2023/02/18 11:08:26;;;;;;;7.65;6.97;;;;;;;;;;5106555;28;20090;-71
2023/02/18 11:10:52;;;;;;;8.52;7.72;;;;;;;;;;5088544;28;20422;-70
2023/02/18 11:13:27;;;;;;;9.00;7.90;;;;;;;;;;5104932;28;20043;-70
2023/02/18 11:16:00;;;;;;;6.70;5.82;;;;;;;;;;5088454;28;20073;-71
2023/02/18 11:24:16;;;;;;;9.70;8.40;;;;;;;;;;5088553;28;20546;-70
2023/02/18 11:27:03;;;;;;;7.55;6.90;;;;;;;;;;5088467;28;20476;-69
2023/02/18 11:29:29;;;;;;;9.25;8.38;;;;;;;;;;5088703;28;20039;-70
2023/02/18 11:31:55;;;;;;;8.70;7.80;;;;;;;;;;5108754;28;20087;-69
2023/02/18 11:34:28;;;;;;;8.60;7.90;;;;;;;;;;5090606;28;20032;-70
2023/02/18 11:36:54;;;;;;;7.80;7.03;;;;;;;;;;5108883;28;20031;-69
2023/02/18 11:39:25;;;;;;;8.90;5.97;;;;;;;;;;5090239;28;20415;-69
2023/02/18 11:41:58;;;;;;;6.80;6.20;;;;;;;;;;5108755;28;20043;-70
2023/02/18 11:44:31;;;;;;;6.47;5.97;;;;;;;;;;5111384;28;20529;-72
2023/02/18 11:46:58;;;;;;;6.25;5.75;;;;;;;;;;5098504;28;20036;-70
2023/02/18 11:49:24;;;;;;;8.68;5.60;;;;;;;;;;5090362;28;20055;-71
2023/02/18 11:51:50;;;;;;;6.20;5.78;;;;;;;;;;5108497;28;20509;-72
2023/02/18 11:54:34;;;;;;;9.35;8.52;;;;;;;;;;5103357;28;20494;-72
2023/02/18 11:57:04;;;;;;;7.05;6.30;;;;;;;;;;5110582;28;20027;-71
2023/02/18 11:59:37;;;;;;;4.68;4.38;;;;;;;;;;5094470;28;20032;-71
2023/02/18 12:02:09;;;;;;;7.18;6.68;;;;;;;;;;5114148;28;20039;-72
2023/02/18 12:04:39;;;;;;;6.28;5.70;;;;;;;;;;5111608;28;20028;-70
2023/02/18 12:07:24;;;;;;;9.98;9.18;;;;;;;;;;5072865;28;20042;-70
2023/02/18 12:09:51;;;;;;;10.35;9.02;;;;;;;;;;5102226;28;20540;-71
2023/02/18 12:12:25;;;;;;;9.25;8.38;;;;;;;;;;5093312;28;20050;-71
2023/02/18 12:14:52;;;;;;;8.77;8.07;;;;;;;;;;5112270;27;20027;-71
2023/02/18 12:17:20;;;;;;;7.88;7.07;;;;;;;;;;5132637;27;20043;-72
2023/02/18 12:19:56;;;;;;;6.53;6.03;;;;;;;;;;5132989;27;20031;-72
2023/02/18 12:22:26;;;;;;;10.18;8.68;;;;;;;;;;5127995;27;20023;-70
2023/02/18 12:25:11;;;;;;;9.45;8.50;;;;;;;;;;5122831;27;20039;-71
2023/02/18 12:27:47;;;;;;;8.40;7.70;;;;;;;;;;5110335;27;20039;-71
2023/02/18 12:30:22;;;;;;;8.80;7.90;;;;;;;;;;5093405;28;20044;-71
2023/02/18 12:32:50;;;;;;;7.05;6.40;;;;;;;;;;5103802;28;20105;-71
2023/02/18 12:35:19;;;;;;;9.50;8.18;;;;;;;;;;5091192;28;20598;-71
2023/02/18 12:37:51;;;;;;;10.48;9.65;;;;;;;;;;5090949;28;20059;-71
2023/02/18 12:40:29;;;;;;;9.32;8.43;;;;;;;;;;5090839;28;20032;-71
2023/02/18 12:43:04;;;;;;;7.90;7.22;;;;;;;;;;5091063;28;20035;-77
2023/02/18 12:45:44;;;;;;;10.25;9.40;;;;;;;;;;5106391;28;20642;-69
2023/02/18 12:48:14;;;;;;;5.13;4.72;;;;;;;;;;5098384;28;20035;-70
2023/02/18 12:50:58;;;;;;;8.60;7.90;;;;;;;;;;5092878;28;20088;-71
2023/02/18 12:53:30;;;;;;;6.53;5.93;;;;;;;;;;5098832;28;20040;-70
2023/02/18 12:55:56;;;;;;;6.05;5.65;;;;;;;;;;5097878;28;20046;-70
2023/02/18 12:58:31;;;;;;;6.32;5.75;;;;;;;;;;5099616;28;20032;-70
2023/02/18 13:01:16;;;;;;;6.47;5.93;;;;;;;;;;5094905;28;20031;-71
2023/02/18 13:03:48;;;;;;;7.18;6.47;;;;;;;;;;5098314;28;20036;-70
2023/02/18 13:06:23;;;;;;;7.70;7.00;;;;;;;;;;5097972;28;20199;-70
2023/02/18 13:08:48;;;;;;;8.13;7.43;;;;;;;;;;5097525;28;20024;-70
2023/02/18 13:11:18;;;;;;;7.90;7.20;;;;;;;;;;5095345;28;20046;-71
2023/02/18 13:14:02;;;;;;;8.63;7.88;;;;;;;;;;5099996;28;20040;-71
2023/02/18 13:16:28;;;;;;;6.78;6.25;;;;;;;;;;5104909;28;20130;-71
2023/02/18 13:18:57;;;;;;;6.88;6.22;;;;;;;;;;5099733;28;20444;-71
2023/02/18 13:21:23;;;;;;;7.72;7.03;;;;;;;;;;5099775;28;20042;-70
2023/02/18 13:23:55;;;;;;;10.50;9.68;;;;;;;;;;5109987;28;20602;-70
2023/02/18 13:26:21;;;;;;;7.75;7.00;;;;;;;;;;5110148;28;20023;-70
2023/02/18 13:29:06;;;;;;;10.10;9.02;;;;;;;;;;5109606;28;20067;-70
2023/02/18 13:31:44;;;;;;;7.03;6.50;;;;;;;;;;5116340;27;20510;-69
2023/02/18 13:34:29;;;;;;;9.45;7.07;;;;;;;;;;5112470;27;20103;-71
2023/02/18 13:37:02;;;;;;;9.65;8.70;;;;;;;;;;5111079;27;20039;-70
2023/02/18 13:39:28;;;;;;;11.35;10.38;;;;;;;;;;5117707;27;20121;-72
2023/02/18 13:42:09;;;;;;;8.95;8.10;;;;;;;;;;5092842;28;20483;-71
2023/02/18 13:44:54;;;;;;;8.00;5.25;;;;;;;;;;5109629;28;20064;-70
2023/02/18 13:47:35;;;;;;;8.65;7.03;;;;;;;;;;5120786;27;20103;-69
2023/02/18 13:50:13;;;;;;;8.15;7.43;;;;;;;;;;5129892;27;20548;-69
2023/02/18 13:52:39;;;;;;;8.85;8.05;;;;;;;;;;5126936;27;20160;-73
2023/02/18 13:55:05;;;;;;;9.18;8.38;;;;;;;;;;5092338;28;20126;-70
2023/02/18 13:57:31;;;;;;;6.68;5.88;;;;;;;;;;5115182;27;20046;-71
2023/02/18 13:59:58;;;;;;;8.68;7.88;;;;;;;;;;5110767;27;20028;-70
2023/02/18 14:02:24;;;;;;;9.63;8.73;;;;;;;;;;5109968;28;20133;-70
2023/02/18 14:04:53;;;;;;;6.53;6.03;;;;;;;;;;5110271;28;20043;-69
2023/02/18 14:07:23;;;;;;;8.02;7.32;;;;;;;;;;5109447;28;20040;-70
2023/02/18 14:09:50;;;;;;;10.68;7.93;;;;;;;;;;5096384;27;20034;-70
2023/02/18 14:12:16;;;;;;;7.97;7.38;;;;;;;;;;5112150;27;20046;-68
2023/02/18 14:14:42;;;;;;;7.80;6.97;;;;;;;;;;5130492;27;20035;-72
2023/02/18 14:17:17;;;;;;;5.75;5.32;;;;;;;;;;5095164;27;20037;-70
2023/02/18 14:19:52;;;;;;;5.25;4.85;;;;;;;;;;5130266;27;20039;-70
2023/02/18 14:22:42;;;;;;;9.90;8.90;;;;;;;;;;5130296;27;20406;-70
2023/02/18 14:25:08;;;;;;;10.32;8.70;;;;;;;;;;5091699;27;20388;-69
2023/02/18 14:27:34;;;;;;;8.77;7.97;;;;;;;;;;5130025;27;20046;-70
2023/02/18 14:30:05;;;;;;;6.75;6.13;;;;;;;;;;5111028;27;20665;-69
2023/02/18 14:32:32;;;;;;;6.85;6.07;;;;;;;;;;5111812;27;20051;-69
2023/02/18 14:35:07;;;;;;;10.13;9.23;;;;;;;;;;5130154;27;20027;-71
2023/02/18 14:37:39;;;;;;;8.70;7.93;;;;;;;;;;5116829;27;20030;-69
2023/02/18 14:40:12;;;;;;;8.13;7.43;;;;;;;;;;5102017;27;20034;-69
2023/02/18 14:42:56;;;;;;;6.95;6.30;;;;;;;;;;5117890;27;20024;-70
2023/02/18 14:45:30;;;;;;;6.85;6.22;;;;;;;;;;5107631;27;20047;-70
2023/02/18 14:48:05;;;;;;;7.45;6.65;;;;;;;;;;5094258;28;20059;-69
2023/02/18 14:50:30;;;;;;;5.43;5.03;;;;;;;;;;5108940;28;20106;-72
2023/02/18 14:52:57;;;;;;;6.55;5.93;;;;;;;;;;5094813;27;20046;-70
2023/02/18 14:55:24;;;;;;;8.57;7.78;;;;;;;;;;5108725;27;20400;-71
2023/02/18 14:57:54;;;;;;;8.68;7.82;;;;;;;;;;5092650;27;20071;-71
2023/02/18 15:00:24;;;;;;;5.88;5.43;;;;;;;;;;5129730;27;20066;-70
2023/02/18 15:02:53;;;;;;;6.72;6.22;;;;;;;;;;5129183;27;20035;-70
2023/02/18 15:05:20;;;;;;;7.57;6.97;;;;;;;;;;5116495;27;20537;-70
2023/02/18 15:07:55;;;;;;;7.50;6.13;;;;;;;;;;5108467;28;20035;-71
2023/02/18 15:10:21;;;;;;;7.00;6.32;;;;;;;;;;5090545;28;20126;-69
2023/02/18 15:12:47;;;;;;;7.40;6.72;;;;;;;;;;5112169;27;20130;-70
2023/02/18 15:15:13;;;;;;;8.05;7.25;;;;;;;;;;5109665;27;20031;-70
2023/02/18 15:17:43;;;;;;;7.30;6.65;;;;;;;;;;5080808;27;20035;-71
2023/02/18 15:20:09;;;;;;;5.55;5.15;;;;;;;;;;5107843;28;20510;-71
2023/02/18 15:22:38;;;;;;;7.13;6.53;;;;;;;;;;5096056;27;20118;-70
2023/02/18 15:25:04;;;;;;;5.47;4.97;;;;;;;;;;5103206;27;20106;-71
2023/02/18 15:27:30;;;;;;;7.90;6.97;;;;;;;;;;5097297;27;20059;-70
2023/02/18 15:29:57;;;;;;;7.75;6.97;;;;;;;;;;5097082;27;20035;-69
2023/02/18 15:32:26;;;;;;;8.65;7.95;;;;;;;;;;5115172;27;20529;-70
2023/02/18 15:34:56;;;;;;;7.68;7.03;;;;;;;;;;5116628;27;20573;-70
2023/02/18 15:37:22;;;;;;;7.10;6.60;;;;;;;;;;5098670;28;20076;-70
2023/02/18 15:39:48;;;;;;;8.48;7.68;;;;;;;;;;5098322;28;20034;-70
2023/02/18 15:42:33;;;;;;;6.80;6.20;;;;;;;;;;5116476;28;20044;-71
2023/02/18 15:45:20;;;;;;;4.65;4.25;;;;;;;;;;5096876;28;20110;-71
2023/02/18 15:47:47;;;;;;;5.13;4.72;;;;;;;;;;5114163;28;20035;-70
2023/02/18 15:50:17;;;;;;;7.78;7.00;;;;;;;;;;5090021;27;20034;-70
2023/02/18 15:53:16;;;;;;;7.55;6.85;;;;;;;;;;5113849;27;20137;-71
2023/02/18 15:55:42;;;;;;;7.55;6.80;;;;;;;;;;5097414;27;20114;-72
2023/02/18 15:58:28;;;;;;;5.72;5.20;;;;;;;;;;5123274;27;20096;-70
2023/02/18 16:00:55;;;;;;;7.65;6.93;;;;;;;;;;5121968;27;20124;-70
2023/02/18 16:03:24;;;;;;;7.07;6.38;;;;;;;;;;5118972;27;20031;-71